createdAt,value
2022-11-24T08:29:33.746Z,500.00
2022-11-24T08:29:48.746Z,500.00
2022-11-24T08:30:03.707Z,500.00
2022-11-24T08:30:19.691Z,500.00
2022-11-24T08:30:41.746Z,500.00
2022-11-24T08:30:55.961Z,500.00
2022-11-24T08:31:05.895Z,500.00
2022-11-24T08:31:22.605Z,500.00
2022-11-24T08:31:34.114Z,500.00
2022-11-24T08:31:48.902Z,500.00
2022-11-24T08:32:03.811Z,500.00
2022-11-24T08:32:22.327Z,500.00
2022-11-24T08:32:33.960Z,500.00
2022-11-24T08:32:53.466Z,500.00
2022-11-24T08:33:03.749Z,500.00
2022-11-24T08:33:20.927Z,500.00
2022-11-24T08:33:33.752Z,500.00
2022-11-24T08:33:54.052Z,500.00
2022-11-24T08:34:04.370Z,500.00
2022-11-24T08:34:32.334Z,500.00
2022-11-24T08:34:47.907Z,500.00
2022-11-24T08:34:49.006Z,500.00
2022-11-24T08:35:19.424Z,500.00
2022-11-24T08:35:21.749Z,500.00
2022-11-24T08:35:34.321Z,500.00
2022-11-24T12:24:57.795Z,500.00
2022-11-24T12:25:12.663Z,500.00
2022-11-24T12:25:27.672Z,500.00
2022-11-24T12:25:42.663Z,500.00
2022-11-24T12:25:57.702Z,500.00
2022-11-24T12:26:12.718Z,500.00
2022-11-24T12:26:27.642Z,500.00
2022-11-24T12:26:42.647Z,500.00
2022-11-24T12:26:57.701Z,500.00
2022-11-24T12:27:14.810Z,500.00
2022-11-24T12:27:28.660Z,500.00
2022-11-24T12:27:42.637Z,500.00
2022-11-24T12:27:57.646Z,500.00
2022-11-24T12:28:12.652Z,500.00
2022-11-24T12:28:27.625Z,500.00
2022-11-24T12:28:42.636Z,500.00
2022-11-24T12:28:57.619Z,500.00
2022-11-24T12:29:12.638Z,500.00
2022-11-24T12:29:27.659Z,500.00
2022-11-24T12:29:42.656Z,500.00
2022-11-24T12:29:57.645Z,500.00
2022-11-24T12:30:12.788Z,500.00
2022-11-24T12:30:27.689Z,500.00
2022-11-24T12:30:42.639Z,500.00
2022-11-24T12:30:57.746Z,500.00
2022-11-24T12:31:12.749Z,500.00
2022-11-24T12:31:27.816Z,500.00
2022-11-24T12:31:42.677Z,500.00
2022-11-24T12:31:57.605Z,500.00
2022-11-24T12:32:12.601Z,500.00
2022-11-24T12:32:27.584Z,495.00
2022-11-24T12:32:42.610Z,489.00
2022-11-24T12:32:57.628Z,484.00
2022-11-24T12:33:12.651Z,474.00
2022-11-24T12:33:27.626Z,464.00
2022-11-24T12:33:47.582Z,455.00
2022-11-24T12:34:01.392Z,455.00
2022-11-24T12:34:12.626Z,455.00
2022-11-24T12:34:27.593Z,453.00
2022-11-24T12:34:42.599Z,431.00
2022-11-24T12:34:57.627Z,416.00
2022-11-24T12:35:12.595Z,402.00
2022-11-24T12:35:27.580Z,400.00
2022-11-24T12:35:42.640Z,400.00
2022-11-24T12:35:57.619Z,400.00
2022-11-24T12:36:12.621Z,400.00
2022-11-24T12:36:27.594Z,400.00
2022-11-24T12:36:42.571Z,400.00
2022-11-24T12:36:57.589Z,400.00
2022-11-24T12:37:12.616Z,400.00
2022-11-24T12:37:27.610Z,400.00
2022-11-24T12:37:42.606Z,400.00
2022-11-24T12:37:57.599Z,400.00
2022-11-24T12:38:12.633Z,400.00
2022-11-24T12:38:27.575Z,400.00
2022-11-24T12:38:42.574Z,400.00
2022-11-24T12:38:57.584Z,400.00
2022-11-24T12:39:12.588Z,400.00
2022-11-24T12:39:27.605Z,400.00
2022-11-24T12:39:42.607Z,400.00
2022-11-24T12:39:57.545Z,417.00
2022-11-24T12:40:12.598Z,440.00
2022-11-24T12:40:27.586Z,466.00
2022-11-24T12:40:46.838Z,484.00
2022-11-24T12:41:18.073Z,484.00
2022-11-24T12:41:43.538Z,484.00
2022-11-24T12:41:43.956Z,484.00
2022-11-24T12:41:57.591Z,485.00
2022-11-24T12:42:12.561Z,486.00
2022-11-24T12:42:27.544Z,488.00
2022-11-24T12:42:42.554Z,489.00
2022-11-24T12:42:57.553Z,491.00
2022-11-24T12:43:12.548Z,493.00
2022-11-24T12:43:27.570Z,496.00
2022-11-24T12:43:42.571Z,498.00
2022-11-24T12:43:57.539Z,501.00
2022-11-24T12:44:12.559Z,504.00
2022-11-24T12:44:27.535Z,510.00
2022-11-24T12:44:42.573Z,518.00
2022-11-24T12:44:57.544Z,528.00
2022-11-24T12:45:12.557Z,533.00
2022-11-24T12:45:27.553Z,538.00
2022-11-24T12:45:42.510Z,544.00
2022-11-24T12:45:57.550Z,553.00
2022-11-24T12:46:17.263Z,564.00
2022-11-24T12:46:28.614Z,484.00
2022-11-24T12:46:42.581Z,485.00
2022-11-24T12:46:57.566Z,486.00
2022-11-24T12:47:12.727Z,487.00
2022-11-24T12:47:27.538Z,489.00
2022-11-24T12:47:42.555Z,491.00
2022-11-24T12:47:57.525Z,494.00
2022-11-24T12:48:12.515Z,498.00
2022-11-24T12:48:27.515Z,501.00
2022-11-24T12:48:42.523Z,504.00
2022-11-24T12:48:57.555Z,508.00
2022-11-24T12:49:12.528Z,513.00
2022-11-24T12:49:27.513Z,518.00
2022-11-24T12:49:42.520Z,526.00
2022-11-24T12:49:57.541Z,532.00
2022-11-24T12:50:12.481Z,538.00
2022-11-24T12:50:27.520Z,543.00
2022-11-24T12:50:42.771Z,545.00
2022-11-24T12:50:57.517Z,551.00
2022-11-24T12:51:12.520Z,554.00
2022-11-24T12:51:27.511Z,557.00
2022-11-24T12:51:42.530Z,548.00
2022-11-24T12:51:57.516Z,548.00
2022-11-24T12:52:12.488Z,553.00
2022-11-24T12:52:27.507Z,554.00
2022-11-24T12:52:42.507Z,561.00
2022-11-24T12:52:59.073Z,567.00
2022-11-24T12:53:12.534Z,572.00
2022-11-24T12:53:27.510Z,582.00
2022-11-24T12:53:42.482Z,590.00
2022-11-24T12:53:57.491Z,594.00
2022-11-24T12:54:12.487Z,594.00
2022-11-24T12:54:27.522Z,595.00
2022-11-24T12:54:42.489Z,591.00
2022-11-24T12:54:57.504Z,581.00
2022-11-24T12:55:12.503Z,575.00
2022-11-24T12:55:27.476Z,569.00
2022-11-24T12:55:42.490Z,564.00
2022-11-24T12:55:57.510Z,554.00
2022-11-24T12:56:12.494Z,548.00
2022-11-24T12:56:27.499Z,542.00
2022-11-24T12:56:42.504Z,539.00
2022-11-24T12:56:57.478Z,529.00
2022-11-24T12:57:12.511Z,527.00
2022-11-24T12:57:27.487Z,521.00
2022-11-24T12:57:42.497Z,514.00
2022-11-24T12:57:57.479Z,508.00
2022-11-24T12:58:12.486Z,508.00
2022-11-24T12:58:27.520Z,505.00
2022-11-24T12:58:42.479Z,501.00
2022-11-24T12:58:57.505Z,501.00
2022-11-24T12:59:12.462Z,500.00
2022-11-24T12:59:27.509Z,500.00
2022-11-24T12:59:42.455Z,501.00
2022-11-24T12:59:57.478Z,497.00
2022-11-24T13:00:12.469Z,505.00
2022-11-24T13:00:27.481Z,500.00
2022-11-24T13:00:42.491Z,532.00
2022-11-24T13:00:57.433Z,542.00
2022-11-24T13:01:16.418Z,518.00
2022-11-24T13:01:27.482Z,518.00
2022-11-24T13:01:42.524Z,518.00
2022-11-24T13:01:57.582Z,518.00
2022-11-24T13:02:12.505Z,508.00
2022-11-24T13:02:27.530Z,504.00
2022-11-24T13:02:42.569Z,499.00
2022-11-24T13:02:57.576Z,518.00
2022-11-24T13:03:12.507Z,525.00
2022-11-24T13:03:27.435Z,553.00
2022-11-24T13:03:42.433Z,561.00
2022-11-24T13:03:57.445Z,548.00
2022-11-24T13:04:12.461Z,534.00
2022-11-24T13:04:27.452Z,521.00
2022-11-24T13:04:42.466Z,502.00
2022-11-24T13:04:57.432Z,488.00
2022-11-24T13:05:12.447Z,487.00
2022-11-24T13:05:27.426Z,1220.00
2022-11-24T13:05:42.421Z,3621.00
2022-11-24T13:05:57.443Z,5345.00
2022-11-24T13:06:12.448Z,6086.00
2022-11-24T13:06:27.451Z,6435.00
2022-11-24T13:06:48.803Z,6575.00
2022-11-24T13:06:58.437Z,6575.00
2022-11-24T13:07:12.511Z,6060.00
2022-11-24T13:19:00.731Z,500.00
2022-11-24T13:19:15.645Z,500.00
2022-11-24T13:19:30.742Z,500.00
2022-11-24T13:19:45.662Z,500.00
2022-11-24T13:20:00.670Z,500.00
2022-11-24T13:20:15.659Z,500.00
2022-11-24T13:20:30.670Z,500.00
2022-11-24T13:20:45.680Z,500.00
2022-11-24T13:21:00.671Z,500.00
2022-11-24T13:21:15.675Z,500.00
2022-11-24T13:21:30.633Z,500.00
2022-11-24T13:21:45.666Z,500.00
2022-11-24T13:22:00.664Z,500.00
2022-11-24T13:22:15.663Z,500.00
2022-11-24T13:22:30.634Z,500.00
2022-11-24T13:22:45.637Z,500.00
2022-11-24T13:23:00.660Z,500.00
2022-11-24T13:23:15.610Z,500.00
2022-11-24T13:23:30.837Z,500.00
2022-11-24T13:23:45.651Z,500.00
2022-11-24T13:24:00.661Z,499.00
2022-11-24T13:24:30.639Z,500.00
2022-11-24T13:24:45.660Z,500.00
2022-11-24T13:25:00.627Z,504.00
2022-11-24T13:25:15.620Z,500.00
2022-11-24T13:25:30.619Z,500.00
2022-11-24T13:25:45.625Z,501.00
2022-11-24T13:26:00.717Z,500.00
2022-11-24T13:26:15.606Z,500.00
2022-11-24T13:26:30.637Z,501.00
2022-11-24T13:26:45.646Z,500.00
2022-11-24T13:27:00.641Z,500.00
2022-11-24T13:27:15.963Z,500.00
2022-11-24T13:27:30.616Z,504.00
2022-11-24T13:27:45.639Z,504.00
2022-11-24T13:28:00.633Z,501.00
2022-11-24T13:28:20.345Z,504.00
2022-11-24T13:29:00.393Z,504.00
2022-11-24T13:29:03.206Z,504.00
2022-11-24T13:29:12.924Z,504.00
2022-11-24T13:29:24.975Z,505.00
2022-11-24T13:29:31.575Z,505.00
2022-11-24T13:29:45.622Z,506.00
2022-11-24T13:30:00.634Z,506.00
2022-11-24T13:30:15.645Z,506.00
2022-11-24T13:30:30.608Z,506.00
2022-11-24T13:30:45.609Z,506.00
2022-11-24T13:31:00.663Z,506.00
2022-11-24T13:31:15.680Z,505.00
2022-11-24T13:31:30.675Z,500.00
2022-11-24T13:31:45.684Z,496.00
2022-11-24T13:32:00.603Z,494.00
2022-11-24T13:32:15.615Z,497.00
2022-11-24T13:32:30.614Z,489.00
2022-11-24T13:32:45.606Z,488.00
2022-11-24T13:33:00.628Z,485.00
2022-11-24T13:33:17.088Z,487.00
2022-11-24T13:33:30.793Z,502.00
2022-11-24T13:33:45.593Z,495.00
2022-11-24T13:34:00.621Z,491.00
2022-11-24T13:34:15.663Z,494.00
2022-11-24T13:34:30.569Z,498.00
2022-11-24T13:34:45.622Z,500.00
2022-11-24T13:35:00.596Z,500.00
2022-11-24T13:35:15.747Z,500.00
2022-11-24T13:35:30.577Z,504.00
2022-11-24T13:35:45.698Z,506.00
2022-11-24T13:36:00.590Z,503.00
2022-11-24T13:36:15.591Z,504.00
2022-11-24T13:36:30.630Z,504.00
2022-11-24T13:36:45.563Z,506.00
2022-11-24T13:37:26.413Z,508.00
2022-11-24T13:37:31.681Z,508.00
2022-11-24T13:37:35.773Z,508.00
2022-11-24T13:37:45.558Z,508.00
2022-11-24T13:38:00.567Z,508.00
2022-11-24T13:38:15.563Z,509.00
2022-11-24T13:38:30.670Z,509.00
2022-11-24T13:38:45.673Z,509.00
2022-11-24T13:39:00.623Z,509.00
2022-11-24T13:39:15.554Z,508.00
2022-11-24T13:39:30.575Z,508.00
2022-11-24T13:39:50.174Z,512.00
2022-11-24T13:40:01.551Z,508.00
2022-11-24T13:40:15.572Z,508.00
2022-11-24T13:40:30.570Z,508.00
2022-11-24T13:41:13.014Z,508.00
2022-11-24T13:41:27.090Z,508.00
2022-11-24T13:41:28.225Z,508.00
2022-11-24T13:41:31.661Z,508.00
2022-11-24T13:41:45.655Z,509.00
2022-11-24T13:42:00.618Z,509.00
2022-11-24T13:42:42.106Z,508.00
2022-11-24T13:42:42.235Z,508.00
2022-11-24T13:42:46.643Z,508.00
2022-11-24T13:43:00.762Z,508.00
2022-11-24T13:43:15.587Z,508.00
2022-11-24T13:43:30.601Z,508.00
2022-11-24T13:43:45.633Z,501.00
2022-11-24T13:44:00.639Z,491.00
2022-11-24T13:44:15.633Z,486.00
2022-11-24T13:44:30.603Z,484.00
2022-11-24T13:44:45.616Z,478.00
2022-11-24T13:45:00.600Z,473.00
2022-11-24T13:45:15.779Z,471.00
2022-11-24T13:45:30.609Z,469.00
2022-11-24T13:45:45.605Z,474.00
2022-11-24T13:46:00.605Z,480.00
2022-11-24T13:46:15.792Z,472.00
2022-11-24T13:46:30.659Z,469.00
2022-11-24T13:46:45.706Z,472.00
2022-11-24T13:47:05.743Z,471.00
2022-11-24T13:47:16.670Z,508.00
2022-11-24T13:47:30.607Z,508.00
2022-11-24T13:47:45.700Z,499.00
2022-11-24T13:48:00.617Z,508.00
2022-11-24T13:48:15.636Z,503.00
2022-11-24T13:48:30.595Z,492.00
2022-11-24T13:48:45.736Z,484.00
2022-11-24T13:49:00.561Z,481.00
2022-11-24T13:49:15.871Z,477.00
2022-11-24T13:49:30.859Z,474.00
2022-11-24T13:49:45.612Z,471.00
2022-11-24T13:50:00.584Z,473.00
2022-11-24T13:50:15.583Z,471.00
2022-11-24T13:50:30.562Z,469.00
2022-11-24T13:50:45.575Z,467.00
2022-11-24T13:51:00.627Z,466.00
2022-11-24T13:51:15.569Z,465.00
2022-11-24T13:51:30.615Z,464.00
2022-11-24T13:51:45.572Z,461.00
2022-11-24T13:52:00.596Z,463.00
2022-11-24T13:52:15.553Z,470.00
2022-11-24T13:52:31.321Z,478.00
2022-11-24T13:52:45.528Z,494.00
2022-11-24T13:53:00.561Z,500.00
2022-11-24T13:53:15.888Z,511.00
2022-11-24T13:53:30.577Z,527.00
2022-11-24T13:53:45.557Z,524.00
2022-11-24T13:54:00.557Z,520.00
2022-11-24T13:54:15.561Z,522.00
2022-11-24T13:54:30.564Z,530.00
2022-11-24T13:54:45.545Z,608.00
2022-11-24T13:55:00.525Z,594.00
2022-11-24T13:55:15.544Z,556.00
2022-11-24T13:55:30.558Z,538.00
2022-11-24T13:55:45.534Z,528.00
2022-11-24T13:56:00.684Z,516.00
2022-11-24T13:56:15.533Z,518.00
2022-11-24T13:56:30.527Z,518.00
2022-11-24T13:56:45.517Z,523.00
2022-11-24T13:57:00.515Z,525.00
2022-11-24T13:57:15.673Z,525.00
2022-11-24T13:57:30.536Z,522.00
2022-11-24T13:57:45.838Z,521.00
2022-11-24T13:58:00.539Z,518.00
2022-11-24T13:58:15.576Z,517.00
2022-11-24T13:58:31.320Z,516.00
2022-11-24T13:58:45.561Z,515.00
2022-11-24T13:59:01.277Z,513.00
2022-11-24T13:59:15.538Z,513.00
2022-11-24T13:59:30.582Z,512.00
2022-11-24T13:59:45.520Z,506.00
2022-11-24T14:00:00.541Z,506.00
2022-11-24T14:00:15.511Z,508.00
2022-11-24T14:00:30.533Z,506.00
2022-11-24T14:00:45.532Z,505.00
2022-11-24T14:01:00.538Z,505.00
2022-11-24T14:01:15.584Z,505.00
2022-11-24T14:01:30.565Z,502.00
2022-11-24T14:01:45.591Z,502.00
2022-11-24T14:02:00.604Z,503.00
2022-11-24T14:02:15.574Z,502.00
2022-11-24T14:02:30.541Z,503.00
2022-11-24T14:02:45.597Z,504.00
2022-11-24T14:03:00.630Z,506.00
2022-11-24T14:03:15.584Z,506.00
2022-11-24T14:03:30.513Z,503.00
2022-11-24T14:04:07.253Z,505.00
2022-11-24T14:04:32.822Z,505.00
2022-11-24T14:04:43.165Z,505.00
2022-11-24T14:04:45.980Z,506.00
2022-11-24T14:05:00.802Z,506.00
2022-11-24T14:05:15.773Z,506.00
2022-11-24T14:05:30.742Z,506.00
2022-11-24T14:05:46.573Z,506.00
2022-11-24T14:06:00.858Z,506.00
2022-11-24T14:06:15.839Z,506.00
2022-11-24T14:06:30.742Z,504.00
2022-11-24T14:06:45.805Z,504.00
2022-11-24T14:07:16.789Z,505.00
2022-11-24T14:07:31.609Z,505.00
2022-11-24T14:07:47.529Z,505.00
2022-11-24T14:08:01.715Z,503.00
2022-11-24T14:08:15.759Z,499.00
2022-11-24T14:08:31.023Z,495.00
2022-11-24T14:08:45.741Z,493.00
2022-11-24T14:09:00.749Z,491.00
2022-11-24T14:09:15.712Z,486.00
2022-11-24T14:09:30.692Z,488.00
2022-11-24T14:09:45.753Z,486.00
2022-11-24T14:10:00.735Z,488.00
2022-11-24T14:10:15.683Z,488.00
2022-11-24T14:10:30.719Z,489.00
2022-11-24T14:10:46.025Z,491.00
2022-11-24T14:11:00.709Z,490.00
2022-11-24T14:11:15.708Z,490.00
2022-11-24T14:11:30.675Z,486.00
2022-11-24T14:11:45.690Z,484.00
2022-11-24T14:12:00.709Z,484.00
2022-11-24T14:12:15.736Z,492.00
2022-11-24T14:12:30.722Z,501.00
2022-11-24T14:12:45.807Z,503.00
2022-11-24T14:13:00.684Z,508.00
2022-11-24T14:13:15.699Z,509.00
2022-11-24T14:13:30.706Z,508.00
2022-11-24T14:13:45.857Z,503.00
2022-11-24T14:14:00.688Z,501.00
2022-11-24T14:14:17.700Z,503.00
2022-11-24T14:14:30.724Z,503.00
2022-11-24T14:14:45.692Z,503.00
2022-11-24T14:15:00.701Z,503.00
2022-11-24T14:15:15.650Z,503.00
2022-11-24T14:15:30.677Z,502.00
2022-11-24T14:15:45.718Z,496.00
2022-11-24T14:16:00.689Z,491.00
2022-11-24T14:16:15.698Z,486.00
2022-11-24T14:16:30.713Z,485.00
2022-11-24T14:16:45.688Z,482.00
2022-11-24T14:17:00.680Z,482.00
2022-11-24T14:17:15.697Z,480.00
2022-11-24T14:17:30.656Z,473.00
2022-11-24T14:17:45.659Z,467.00
2022-11-24T14:18:00.663Z,468.00
2022-11-24T14:18:15.659Z,466.00
2022-11-24T14:18:30.665Z,465.00
2022-11-24T14:18:45.690Z,463.00
2022-11-24T14:19:00.689Z,459.00
2022-11-24T14:19:15.646Z,459.00
2022-11-24T14:19:32.314Z,464.00
2022-11-24T14:19:45.671Z,498.00
2022-11-24T14:20:00.675Z,505.00
2022-11-24T14:20:15.668Z,500.00
2022-11-24T14:20:30.673Z,504.00
2022-11-24T14:20:45.653Z,500.00
2022-11-24T14:21:00.712Z,500.00
2022-11-24T14:21:15.631Z,505.00
2022-11-24T14:21:30.639Z,508.00
2022-11-24T14:21:45.670Z,514.00
2022-11-24T14:22:00.672Z,522.00
2022-11-24T14:22:15.681Z,523.00
2022-11-24T14:22:30.685Z,524.00
2022-11-24T14:22:45.660Z,523.00
2022-11-24T14:23:00.665Z,521.00
2022-11-24T14:23:15.630Z,512.00
2022-11-24T14:23:30.630Z,509.00
2022-11-24T14:23:45.620Z,500.00
2022-11-24T14:24:00.622Z,507.00
2022-11-24T14:24:15.638Z,513.00
2022-11-24T14:24:30.637Z,514.00
2022-11-24T14:24:45.807Z,512.00
2022-11-24T14:25:00.638Z,506.00
2022-11-24T14:25:15.638Z,505.00
2022-11-24T14:25:30.619Z,500.00
2022-11-24T14:25:45.647Z,500.00
2022-11-24T14:26:00.681Z,501.00
2022-11-24T14:26:15.639Z,500.00
2022-11-24T14:26:30.666Z,499.00
2022-11-24T14:26:45.580Z,500.00
2022-11-24T14:27:00.609Z,502.00
2022-11-24T14:27:15.608Z,505.00
2022-11-24T14:27:30.609Z,522.00
2022-11-24T14:27:45.645Z,2601.00
2022-11-24T14:28:01.042Z,3312.00
2022-11-24T14:28:15.670Z,3233.00
2022-11-24T14:28:30.672Z,2519.00
2022-11-24T14:28:45.679Z,1700.00
2022-11-24T14:29:00.618Z,652.00
2022-11-24T14:29:15.881Z,427.00
2022-11-24T14:29:30.639Z,400.00
2022-11-24T14:29:48.830Z,400.00
2022-11-24T14:30:01.656Z,400.00
2022-11-24T14:30:15.617Z,400.00
2022-11-24T14:30:30.627Z,400.00
2022-11-24T14:30:45.587Z,403.00
2022-11-24T14:31:00.646Z,408.00
2022-11-24T14:31:15.652Z,413.00
2022-11-24T14:31:30.625Z,420.00
2022-11-24T14:31:45.687Z,425.00
2022-11-24T14:32:00.617Z,430.00
2022-11-24T14:32:15.618Z,438.00
2022-11-24T14:32:30.611Z,448.00
2022-11-24T14:32:45.583Z,460.00
2022-11-24T14:33:00.583Z,470.00
2022-11-24T14:33:15.686Z,482.00
2022-11-24T14:33:30.614Z,494.00
2022-11-24T14:33:45.608Z,507.00
2022-11-24T14:34:00.589Z,520.00
2022-11-24T14:34:15.982Z,535.00
2022-11-24T14:34:30.746Z,546.00
2022-11-24T14:34:45.598Z,556.00
2022-11-24T14:35:00.649Z,586.00
2022-11-24T14:35:15.699Z,594.00
2022-11-24T14:35:30.705Z,588.00
2022-11-24T14:35:45.639Z,587.00
2022-11-24T14:36:00.594Z,583.00
2022-11-24T14:36:15.705Z,574.00
2022-11-24T14:36:30.619Z,567.00
2022-11-24T14:36:45.631Z,562.00
2022-11-24T14:37:00.608Z,562.00
2022-11-24T14:37:15.621Z,556.00
2022-11-24T14:37:30.657Z,552.00
2022-11-24T14:37:45.569Z,557.00
2022-11-24T14:38:01.018Z,551.00
2022-11-24T14:38:15.569Z,548.00
2022-11-24T14:38:30.574Z,548.00
2022-11-24T14:38:45.580Z,551.00
2022-11-24T14:39:00.550Z,544.00
2022-11-24T14:39:15.604Z,542.00
2022-11-24T14:39:30.567Z,538.00
2022-11-24T14:39:45.544Z,526.00
2022-11-24T14:40:00.577Z,522.00
2022-11-24T14:40:15.549Z,517.00
2022-11-24T14:40:30.546Z,513.00
2022-11-24T14:40:45.569Z,506.00
2022-11-24T14:41:00.551Z,503.00
2022-11-24T14:41:15.700Z,509.00
2022-11-24T14:41:30.504Z,506.00
2022-11-24T14:41:45.532Z,507.00
2022-11-24T14:42:00.567Z,502.00
2022-11-24T14:42:15.504Z,500.00
2022-11-24T14:42:30.601Z,505.00
2022-11-24T14:42:45.522Z,506.00
2022-11-24T14:43:00.544Z,510.00
2022-11-24T14:43:15.524Z,507.00
2022-11-24T14:43:30.536Z,503.00
2022-11-24T14:43:45.539Z,500.00
2022-11-24T14:44:00.543Z,504.00
2022-11-24T14:44:15.657Z,513.00
2022-11-24T14:44:30.511Z,509.00
2022-11-24T14:44:45.513Z,506.00
2022-11-24T14:45:00.562Z,503.00
2022-11-24T14:45:15.522Z,500.00
2022-11-24T14:45:30.533Z,500.00
2022-11-24T14:45:45.520Z,508.00
2022-11-24T14:46:00.563Z,504.00
2022-11-24T14:46:15.547Z,500.00
2022-11-24T14:46:30.714Z,500.00
2022-11-24T14:46:45.558Z,506.00
2022-11-24T14:47:00.597Z,505.00
2022-11-24T14:47:15.501Z,512.00
2022-11-24T14:47:32.037Z,513.00
2022-11-24T14:47:45.590Z,521.00
2022-11-24T14:48:00.511Z,500.00
2022-11-24T14:48:15.514Z,500.00
2022-11-24T14:48:30.521Z,501.00
2022-11-24T14:48:45.521Z,500.00
2022-11-24T14:49:00.513Z,499.00
2022-11-24T14:49:15.589Z,502.00
2022-11-24T14:49:30.507Z,500.00
2022-11-24T14:49:45.506Z,500.00
2022-11-24T14:50:00.587Z,500.00
2022-11-24T14:50:15.571Z,505.00
2022-11-24T14:50:30.532Z,515.00
2022-11-24T14:50:45.498Z,521.00
2022-11-24T14:51:00.498Z,531.00
2022-11-24T14:51:15.499Z,522.00
2022-11-24T14:51:30.488Z,516.00
2022-11-24T14:51:45.494Z,511.00
2022-11-24T14:52:00.478Z,536.00
2022-11-24T14:52:15.494Z,582.00
2022-11-24T14:52:30.475Z,546.00
2022-11-24T14:52:45.490Z,528.00
2022-11-24T14:53:00.523Z,528.00
2022-11-24T14:53:15.483Z,545.00
2022-11-24T14:53:30.501Z,539.00
2022-11-24T14:53:45.477Z,521.00
2022-11-24T14:54:00.477Z,520.00
2022-11-24T14:54:15.560Z,526.00
2022-11-24T14:54:30.485Z,523.00
2022-11-24T14:54:45.480Z,524.00
2022-11-24T14:55:17.365Z,518.00
2022-11-24T14:55:22.878Z,518.00
2022-11-24T14:55:31.471Z,518.00
2022-11-24T14:55:45.468Z,519.00
2022-11-24T14:56:00.450Z,519.00
2022-11-24T14:56:15.435Z,519.00
2022-11-24T14:56:30.475Z,518.00
2022-11-24T14:56:45.475Z,512.00
2022-11-24T14:57:00.448Z,513.00
2022-11-24T14:57:15.479Z,514.00
2022-11-24T14:57:30.450Z,515.00
2022-11-24T14:57:45.430Z,512.00
2022-11-24T14:58:00.430Z,516.00
2022-11-24T14:58:15.540Z,513.00
2022-11-24T14:58:30.460Z,485.00
2022-11-24T14:58:45.455Z,474.00
2022-11-24T14:59:00.463Z,482.00
2022-11-24T14:59:15.523Z,486.00
2022-11-24T14:59:30.477Z,486.00
2022-11-24T14:59:45.423Z,495.00
2022-11-24T15:00:00.426Z,490.00
2022-11-24T15:00:15.433Z,496.00
2022-11-24T15:00:30.534Z,494.00
2022-11-24T15:00:45.493Z,500.00
2022-11-24T15:01:00.496Z,500.00
2022-11-24T15:01:15.461Z,500.00
2022-11-24T15:01:30.443Z,500.00
2022-11-24T15:01:45.491Z,507.00
2022-11-24T15:02:00.478Z,512.00
2022-11-24T15:02:15.477Z,506.00
2022-11-24T15:02:30.552Z,503.00
2022-11-24T15:02:45.452Z,500.00
2022-11-24T15:03:00.445Z,508.00
2022-11-24T15:03:15.448Z,506.00
2022-11-24T15:03:30.500Z,515.00
2022-11-24T15:03:45.410Z,501.00
2022-11-24T15:04:00.436Z,501.00
2022-11-24T15:04:32.388Z,502.00
2022-11-24T15:05:02.120Z,502.00
2022-11-24T15:05:02.214Z,502.00
2022-11-24T15:05:03.132Z,502.00
2022-11-24T15:05:15.400Z,502.00
2022-11-24T15:05:30.407Z,503.00
2022-11-24T15:05:45.421Z,503.00
2022-11-24T15:06:00.431Z,503.00
2022-11-24T15:06:15.414Z,503.00
2022-11-24T15:06:30.409Z,503.00
2022-11-24T15:06:45.440Z,503.00
2022-11-24T15:07:00.466Z,502.00
2022-11-24T15:07:15.514Z,503.00
2022-11-24T15:07:30.415Z,502.00
2022-11-24T15:07:45.513Z,502.00
2022-11-24T15:08:00.541Z,501.00
2022-11-24T15:08:15.404Z,503.00
2022-11-24T15:08:30.496Z,502.00
2022-11-24T15:08:45.411Z,499.00
2022-11-24T15:09:00.414Z,493.00
2022-11-24T15:09:15.457Z,488.00
2022-11-24T15:09:30.496Z,484.00
2022-11-24T15:09:45.380Z,481.00
2022-11-24T15:10:00.402Z,472.00
2022-11-24T15:10:15.396Z,476.00
2022-11-24T15:10:33.642Z,490.00
2022-11-24T15:10:45.404Z,490.00
2022-11-24T15:11:00.401Z,490.00
2022-11-24T15:11:15.394Z,490.00
2022-11-24T15:11:30.369Z,490.00
2022-11-24T15:11:45.368Z,483.00
2022-11-24T15:12:00.384Z,477.00
2022-11-24T15:12:15.385Z,483.00
2022-11-24T15:12:30.385Z,481.00
2022-11-24T15:12:45.389Z,482.00
2022-11-24T15:13:00.391Z,481.00
2022-11-24T15:13:15.375Z,479.00
2022-11-24T15:13:30.350Z,482.00
2022-11-24T15:13:45.383Z,475.00
2022-11-24T15:14:00.384Z,482.00
2022-11-24T15:14:15.381Z,482.00
2022-11-24T15:14:30.444Z,485.00
2022-11-24T15:14:45.434Z,485.00
2022-11-24T15:15:00.395Z,484.00
2022-11-24T15:15:15.337Z,475.00
2022-11-24T15:15:30.340Z,466.00
2022-11-24T15:15:45.330Z,462.00
2022-11-24T15:16:02.971Z,473.00
2022-11-24T15:16:15.446Z,473.00
2022-11-24T15:16:30.700Z,473.00
2022-11-24T15:16:45.428Z,473.00
2022-11-24T15:17:00.356Z,473.00
2022-11-24T15:17:15.338Z,474.00
2022-11-24T15:17:30.344Z,474.00
2022-11-24T15:17:45.362Z,474.00
2022-11-24T15:18:00.365Z,473.00
2022-11-24T15:18:15.355Z,474.00
2022-11-24T15:18:30.348Z,476.00
2022-11-24T15:18:45.349Z,476.00
2022-11-24T15:19:00.346Z,475.00
2022-11-24T15:19:15.355Z,474.00
2022-11-24T15:19:30.333Z,465.00
2022-11-24T15:19:45.563Z,467.00
2022-11-24T15:20:00.335Z,465.00
2022-11-24T15:20:15.382Z,461.00
2022-11-24T15:20:30.370Z,463.00
2022-11-24T15:20:45.390Z,471.00
2022-11-24T15:21:00.304Z,476.00
2022-11-24T15:21:19.163Z,481.00
2022-11-24T15:21:30.316Z,481.00
2022-11-24T15:21:45.556Z,481.00
2022-11-24T15:22:00.332Z,481.00
2022-11-24T15:22:15.324Z,481.00
2022-11-24T15:22:30.341Z,482.00
2022-11-24T15:22:45.327Z,482.00
2022-11-24T15:23:00.295Z,482.00
2022-11-24T15:23:15.328Z,482.00
2022-11-24T15:23:30.289Z,477.00
2022-11-24T15:23:45.294Z,481.00
2022-11-24T15:24:00.314Z,482.00
2022-11-24T15:24:15.314Z,482.00
2022-11-24T15:24:30.335Z,480.00
2022-11-24T15:24:45.301Z,481.00
2022-11-24T15:25:00.289Z,481.00
2022-11-24T15:25:15.369Z,477.00
2022-11-24T15:25:30.297Z,471.00
2022-11-24T15:25:45.308Z,464.00
2022-11-24T15:26:00.309Z,462.00
2022-11-24T15:26:15.296Z,466.00
2022-11-24T15:26:34.093Z,477.00
2022-11-24T15:26:46.311Z,478.00
2022-11-24T15:27:00.275Z,478.00
2022-11-24T15:27:15.260Z,478.00
2022-11-24T15:27:30.276Z,478.00
2022-11-24T15:27:45.331Z,478.00
2022-11-24T15:28:00.300Z,478.00
2022-11-24T15:28:15.269Z,478.00
2022-11-24T15:28:30.300Z,479.00
2022-11-24T15:28:45.282Z,482.00
2022-11-24T15:29:00.275Z,484.00
2022-11-24T15:29:15.350Z,484.00
2022-11-24T15:29:30.275Z,484.00
2022-11-24T15:29:45.329Z,486.00
2022-11-24T15:30:01.957Z,488.00
2022-11-24T15:30:15.305Z,492.00
2022-11-24T15:30:30.336Z,492.00
2022-11-24T15:30:45.279Z,495.00
2022-11-24T15:31:00.315Z,490.00
2022-11-24T15:31:15.336Z,493.00
2022-11-24T15:31:30.341Z,499.00
2022-11-24T15:31:50.819Z,505.00
2022-11-24T15:32:01.311Z,505.00
2022-11-24T15:32:15.303Z,505.00
2022-11-24T15:32:30.264Z,505.00
2022-11-24T15:32:45.284Z,505.00
2022-11-24T15:33:00.253Z,505.00
2022-11-24T15:33:15.334Z,506.00
2022-11-24T15:33:30.276Z,506.00
2022-11-24T15:33:45.269Z,506.00
2022-11-24T15:34:00.267Z,507.00
2022-11-24T15:34:15.232Z,507.00
2022-11-24T15:34:30.366Z,507.00
2022-11-24T15:34:45.263Z,508.00
2022-11-24T15:35:00.223Z,512.00
2022-11-24T15:35:15.244Z,514.00
2022-11-24T15:35:30.268Z,516.00
2022-11-24T15:35:45.286Z,515.00
2022-11-24T15:36:00.229Z,515.00
2022-11-24T15:36:15.243Z,523.00
2022-11-24T15:36:30.262Z,531.00
2022-11-24T15:36:45.221Z,540.00
2022-11-24T15:37:00.234Z,543.00
2022-11-24T15:37:15.241Z,544.00
2022-11-24T15:37:34.041Z,550.00
2022-11-24T15:37:45.238Z,550.00
2022-11-24T15:38:00.247Z,550.00
2022-11-24T15:38:15.235Z,550.00